createdAt,value
2019-01-11T05:02:14.572Z,30.40
2019-01-11T05:04:49.759Z,33.50
2019-01-11T05:07:25.072Z,32.67
2019-01-11T05:10:00.384Z,30.77
2019-01-11T05:12:35.590Z,27.60
2019-01-11T06:02:33.931Z,35.70
2019-01-11T06:05:10.687Z,38.03
2019-01-11T06:11:00.491Z,34.27
2019-01-11T06:13:35.328Z,30.67
2019-01-11T07:02:50.182Z,35.87
2019-01-11T07:05:25.325Z,34.63
2019-01-11T07:08:00.445Z,37.07
2019-01-11T07:10:35.580Z,37.43
2019-01-11T07:13:10.739Z,31.60
2019-01-11T08:02:26.431Z,24.67
2019-01-11T08:05:01.453Z,27.27
2019-01-11T08:07:38.491Z,29.00
2019-01-11T08:10:13.700Z,26.97
2019-01-11T08:12:48.827Z,23.37
2019-01-11T08:27:09.371Z,24.67
2019-01-11T08:29:44.538Z,23.87
2019-01-11T08:32:19.495Z,19.90
2019-01-11T08:34:54.495Z,19.50
2019-01-11T08:37:29.431Z,18.87
2019-01-11T08:40:04.575Z,20.63
2019-01-11T08:42:39.780Z,20.37
2019-01-11T08:45:14.762Z,21.00
2019-01-11T08:47:49.843Z,18.97
2019-01-11T08:50:24.895Z,21.33
2019-01-11T08:53:00.302Z,19.97
2019-01-11T08:55:35.251Z,17.70
2019-01-11T08:58:11.490Z,20.20
2019-01-11T09:00:46.630Z,23.23
2019-01-11T09:03:21.879Z,20.77
2019-01-11T09:05:56.727Z,18.73
2019-01-11T09:08:31.891Z,22.30
2019-01-11T09:11:06.954Z,21.10
2019-01-11T09:13:41.795Z,20.23
2019-01-11T10:02:12.395Z,20.13
2019-01-11T10:04:50.200Z,20.97
2019-01-11T10:07:27.655Z,21.53
2019-01-11T10:10:02.539Z,21.10
2019-01-11T10:12:40.647Z,22.43
2019-01-11T11:02:37.010Z,17.70
2019-01-11T11:05:12.130Z,18.33
2019-01-11T11:07:47.202Z,19.23
2019-01-11T11:10:22.271Z,21.47
2019-01-11T11:12:57.383Z,23.37
2019-01-11T12:02:48.910Z,17.87
2019-01-11T12:05:11.390Z,18.27
2019-01-11T12:07:46.051Z,16.57
2019-01-11T12:10:21.219Z,16.37
2019-01-11T12:12:56.419Z,15.97
2019-01-11T13:01:44.603Z,16.50
2019-01-11T13:04:07.170Z,17.70
2019-01-11T13:06:29.847Z,16.90
2019-01-11T13:08:52.775Z,17.10
2019-01-11T13:11:27.915Z,15.30
2019-01-11T13:13:50.442Z,16.47
2019-01-11T13:30:58.313Z,18.27
2019-01-11T13:33:25.199Z,15.47
2019-01-11T13:35:50.875Z,15.63
2019-01-11T13:41:20.016Z,18.70
2019-01-11T13:43:59.143Z,19.20
2019-01-11T13:46:34.283Z,20.43
2019-01-11T13:49:10.219Z,20.30
2019-01-11T13:51:46.973Z,22.30
2019-01-11T13:54:22.511Z,21.70
2019-01-11T13:56:57.677Z,16.17
2019-01-11T13:59:32.491Z,16.70
2019-01-11T14:04:58.953Z,19.07
2019-01-11T14:07:33.969Z,19.57
2019-01-11T14:10:08.975Z,18.03
2019-01-11T14:12:31.522Z,16.93
2019-01-11T14:14:53.986Z,12.83
2019-01-11T15:02:15.209Z,10.87
2019-01-11T15:04:37.758Z,11.47
2019-01-11T15:07:00.292Z,8.83
2019-01-11T15:09:22.794Z,11.17
2019-01-11T15:11:45.234Z,9.57
2019-01-11T15:14:07.729Z,10.90
2019-01-11T16:01:30.194Z,11.40
2019-01-11T16:03:53.186Z,13.00
2019-01-11T16:06:24.409Z,13.17
2019-01-11T16:09:59.718Z,14.57
2019-01-11T16:12:22.474Z,10.33
2019-01-11T16:34:43.743Z,15.70
2019-01-11T16:37:18.827Z,16.37
2019-01-11T16:39:41.271Z,18.97
2019-01-11T16:42:07.150Z,17.97
2019-01-11T16:44:30.265Z,17.87
2019-01-11T16:46:52.702Z,14.50
2019-01-11T16:49:15.160Z,19.07
2019-01-11T16:51:41.008Z,19.67
2019-01-11T16:54:04.118Z,19.30
2019-01-11T16:56:27.783Z,18.00
2019-01-11T16:58:51.217Z,21.43
2019-01-11T17:01:15.204Z,21.77
2019-01-11T17:03:37.888Z,21.60
2019-01-11T17:06:00.577Z,17.10
2019-01-11T17:08:23.134Z,18.17
2019-01-11T17:10:45.687Z,19.30
2019-01-11T17:13:08.382Z,18.17
2019-01-11T18:02:35.915Z,19.23
2019-01-11T18:04:58.414Z,20.63
2019-01-11T18:07:20.863Z,19.77
2019-01-11T18:09:43.306Z,17.60
2019-01-11T18:12:05.742Z,19.17
2019-01-11T18:14:28.377Z,20.37
2019-01-11T19:01:00.119Z,21.23
2019-01-11T19:03:22.756Z,22.90
2019-01-11T19:05:45.314Z,20.93
2019-01-11T19:08:07.861Z,21.53
2019-01-11T19:10:30.291Z,20.40
2019-01-11T19:12:52.733Z,20.87
2019-01-11T20:01:48.434Z,22.87
2019-01-11T20:04:10.874Z,20.40
2019-01-11T20:06:33.462Z,21.00
2019-01-11T20:09:15.599Z,19.50
2019-01-11T20:11:50.564Z,28.33
2019-01-11T20:14:25.690Z,22.03
2019-01-11T21:01:24.786Z,22.07
2019-01-11T21:03:47.387Z,23.17
2019-01-11T21:06:09.874Z,22.50
2019-01-11T21:08:51.891Z,25.73
2019-01-11T21:11:26.739Z,20.60
2019-01-11T21:14:01.825Z,23.33
